Alamogordo White Sands Regional Airport
KALM : now visible

Airfield :











YOU CAN JOIN US ON...

 
LOGIN :

Register | Disclaimer

   EN    FR    IT 

 









Legend :    VFR   Marginal VFR   IFR   Intensive IFR   Very Intensive IFR
Visi :
Ceiling :
>= 8 km
>= 3000ft
5 to 8 km
1000 to 3000 ft
1500m to 5 km
500 to 1000 ft
800 to 1500m
200 to 500 ft
< 800m
< 200 ft
Symbols :   Thunderstorms  Fog  Heavy snow  Heavy precipitations  Wind > 20 kt






- Airport Elevation : 4200 ft
- IATA code : ALM


KALM - Alamogordo White Sands Regional

CURRENT METAR :
  • 152315Z AUTO 36015KT 10SM CLR 17/M18 A3010 RMK AO2

EXPIRED METARs :
  • 152255Z AUTO 35011G16KT 10SM CLR 17/M18 A3012 RMK AO2
  • 152235Z AUTO 35011G16KT 10SM CLR 17/M18 A3013 RMK AO2
  • 152215Z AUTO 33012G19KT 10SM CLR 17/M18 A3013 RMK AO2
  • 152155Z AUTO 34013G18KT 10SM CLR 17/M18 A3014 RMK AO2
  • 152135Z AUTO 35013KT 10SM CLR 16/M18 A3015 RMK AO2
  • 152115Z AUTO 35015G18KT 10SM CLR 16/M18 A3015 RMK AO2
  • 152055Z AUTO 33014G19KT 10SM CLR 16/M18 A3015 RMK AO2
  • 152035Z AUTO 35013KT 10SM CLR 15/M18 A3015 RMK AO2
  • 152015Z AUTO 34015G21KT 10SM CLR 15/M18 A3015 RMK AO2

TAF N/A
KZAB FIR / North America



MET'MAP, your aeronautical weather chart ! - Copyright ORBIFLY December 2007 - Disclaimer

ORBIFLY MET'MAP TEAM :

Programming & Development : Alexandra Zaïnal
Concept & original design : Baudouin d'Aumeries
Assistance for programming : Marc-Olivier Méhu
Technical & hardware support : Manuel Goepfert

Contact : metmap@orbifly.com




SOURCES & CREDITS :

   NOAA       Earth
Advisory